sensor_id;sensor_type;location;lat;lon;timestamp;temperature;humidity
55004;DHT22;40900;52.710;6.438;2023-04-28T00:01:20;8.60;99.90
55004;DHT22;40900;52.710;6.438;2023-04-28T00:03:45;8.60;99.90
55004;DHT22;40900;52.710;6.438;2023-04-28T00:06:11;8.50;99.90
55004;DHT22;40900;52.710;6.438;2023-04-28T00:08:37;8.50;99.90
55004;DHT22;40900;52.710;6.438;2023-04-28T00:11:02;8.50;99.90
55004;DHT22;40900;52.710;6.438;2023-04-28T00:13:28;8.40;99.90
55004;DHT22;40900;52.710;6.438;2023-04-28T00:15:54;8.40;99.90
55004;DHT22;40900;52.710;6.438;2023-04-28T00:18:21;8.40;99.90
55004;DHT22;40900;52.710;6.438;2023-04-28T00:20:46;8.40;99.90
55004;DHT22;40900;52.710;6.438;2023-04-28T00:23:12;8.40;99.90
55004;DHT22;40900;52.710;6.438;2023-04-28T00:25:38;8.40;99.90
55004;DHT22;40900;52.710;6.438;2023-04-28T00:28:04;8.40;99.90
55004;DHT22;40900;52.710;6.438;2023-04-28T00:30:30;8.30;99.90
55004;DHT22;40900;52.710;6.438;2023-04-28T00:32:56;8.30;99.90
55004;DHT22;40900;52.710;6.438;2023-04-28T00:35:22;8.30;99.90
55004;DHT22;40900;52.710;6.438;2023-04-28T00:37:48;8.30;99.90
55004;DHT22;40900;52.710;6.438;2023-04-28T00:40:14;8.30;99.90
55004;DHT22;40900;52.710;6.438;2023-04-28T00:42:39;8.30;99.90
55004;DHT22;40900;52.710;6.438;2023-04-28T00:45:06;8.20;99.90
55004;DHT22;40900;52.710;6.438;2023-04-28T00:47:33;8.20;99.90
55004;DHT22;40900;52.710;6.438;2023-04-28T00:50:03;8.20;99.90
55004;DHT22;40900;52.710;6.438;2023-04-28T00:52:31;8.20;99.90
55004;DHT22;40900;52.710;6.438;2023-04-28T00:54:56;8.20;99.90
55004;DHT22;40900;52.710;6.438;2023-04-28T00:57:22;8.10;99.90
55004;DHT22;40900;52.710;6.438;2023-04-28T00:59:48;8.10;99.90
55004;DHT22;40900;52.710;6.438;2023-04-28T01:02:14;8.10;99.90
55004;DHT22;40900;52.710;6.438;2023-04-28T01:04:46;8.10;99.90
55004;DHT22;40900;52.710;6.438;2023-04-28T01:07:12;8.10;99.90
55004;DHT22;40900;52.710;6.438;2023-04-28T01:09:38;8.10;99.90
55004;DHT22;40900;52.710;6.438;2023-04-28T01:12:04;8.10;99.90
55004;DHT22;40900;52.710;6.438;2023-04-28T01:14:31;8.00;99.90
55004;DHT22;40900;52.710;6.438;2023-04-28T01:16:57;8.10;99.90
55004;DHT22;40900;52.710;6.438;2023-04-28T01:19:22;8.10;99.90
55004;DHT22;40900;52.710;6.438;2023-04-28T01:21:51;8.10;99.90
55004;DHT22;40900;52.710;6.438;2023-04-28T01:24:17;8.00;99.90
55004;DHT22;40900;52.710;6.438;2023-04-28T01:26:43;8.00;99.90
55004;DHT22;40900;52.710;6.438;2023-04-28T01:29:09;8.00;99.90
55004;DHT22;40900;52.710;6.438;2023-04-28T01:31:35;8.00;99.90
55004;DHT22;40900;52.710;6.438;2023-04-28T01:34:01;8.00;99.90
55004;DHT22;40900;52.710;6.438;2023-04-28T01:36:27;8.00;99.90
55004;DHT22;40900;52.710;6.438;2023-04-28T01:38:53;8.00;99.90
55004;DHT22;40900;52.710;6.438;2023-04-28T01:41:19;7.90;99.90
55004;DHT22;40900;52.710;6.438;2023-04-28T01:43:45;7.90;99.90
55004;DHT22;40900;52.710;6.438;2023-04-28T01:46:10;7.90;99.90
55004;DHT22;40900;52.710;6.438;2023-04-28T01:48:36;7.80;99.90
55004;DHT22;40900;52.710;6.438;2023-04-28T01:51:02;7.90;99.90
55004;DHT22;40900;52.710;6.438;2023-04-28T01:53:28;7.90;99.90
55004;DHT22;40900;52.710;6.438;2023-04-28T01:55:54;7.90;99.90
55004;DHT22;40900;52.710;6.438;2023-04-28T01:58:19;7.90;99.90
55004;DHT22;40900;52.710;6.438;2023-04-28T02:00:46;7.90;99.90
55004;DHT22;40900;52.710;6.438;2023-04-28T02:03:12;7.90;99.90
55004;DHT22;40900;52.710;6.438;2023-04-28T02:05:38;7.90;99.90
55004;DHT22;40900;52.710;6.438;2023-04-28T02:08:04;7.80;99.90
55004;DHT22;40900;52.710;6.438;2023-04-28T02:10:29;7.80;99.90
55004;DHT22;40900;52.710;6.438;2023-04-28T02:12:55;7.80;99.90
55004;DHT22;40900;52.710;6.438;2023-04-28T02:15:21;7.70;99.90
55004;DHT22;40900;52.710;6.438;2023-04-28T02:17:46;7.70;99.90
55004;DHT22;40900;52.710;6.438;2023-04-28T02:20:12;7.70;99.90
55004;DHT22;40900;52.710;6.438;2023-04-28T02:22:41;7.70;99.90
55004;DHT22;40900;52.710;6.438;2023-04-28T02:25:07;7.70;99.90
55004;DHT22;40900;52.710;6.438;2023-04-28T02:27:36;7.70;99.90
55004;DHT22;40900;52.710;6.438;2023-04-28T02:30:06;7.70;99.90
55004;DHT22;40900;52.710;6.438;2023-04-28T02:32:32;7.70;99.90
55004;DHT22;40900;52.710;6.438;2023-04-28T02:34:58;7.70;99.90
55004;DHT22;40900;52.710;6.438;2023-04-28T02:37:23;7.70;99.90
55004;DHT22;40900;52.710;6.438;2023-04-28T02:39:49;7.60;99.90
55004;DHT22;40900;52.710;6.438;2023-04-28T02:42:15;7.70;99.90
55004;DHT22;40900;52.710;6.438;2023-04-28T02:44:41;7.60;99.90
55004;DHT22;40900;52.710;6.438;2023-04-28T02:47:06;7.70;99.90
55004;DHT22;40900;52.710;6.438;2023-04-28T02:49:32;7.70;99.90
55004;DHT22;40900;52.710;6.438;2023-04-28T02:51:58;7.70;99.90
55004;DHT22;40900;52.710;6.438;2023-04-28T02:54:23;7.70;99.90
55004;DHT22;40900;52.710;6.438;2023-04-28T02:56:53;7.70;99.90
55004;DHT22;40900;52.710;6.438;2023-04-28T02:59:19;7.70;99.90
55004;DHT22;40900;52.710;6.438;2023-04-28T03:01:45;7.70;99.90
55004;DHT22;40900;52.710;6.438;2023-04-28T03:04:12;7.70;99.90
55004;DHT22;40900;52.710;6.438;2023-04-28T03:06:38;7.70;99.90
55004;DHT22;40900;52.710;6.438;2023-04-28T03:09:04;7.70;99.90
55004;DHT22;40900;52.710;6.438;2023-04-28T03:11:30;7.70;99.90
55004;DHT22;40900;52.710;6.438;2023-04-28T03:13:56;7.70;99.90
55004;DHT22;40900;52.710;6.438;2023-04-28T03:16:21;7.60;99.90
55004;DHT22;40900;52.710;6.438;2023-04-28T03:18:47;7.60;99.90
55004;DHT22;40900;52.710;6.438;2023-04-28T03:21:13;7.60;99.90
55004;DHT22;40900;52.710;6.438;2023-04-28T03:23:38;7.60;99.90
55004;DHT22;40900;52.710;6.438;2023-04-28T03:26:04;7.60;99.90
55004;DHT22;40900;52.710;6.438;2023-04-28T03:28:30;7.60;99.90
55004;DHT22;40900;52.710;6.438;2023-04-28T03:30:56;7.60;99.90
55004;DHT22;40900;52.710;6.438;2023-04-28T03:33:22;7.60;99.90
55004;DHT22;40900;52.710;6.438;2023-04-28T03:35:48;7.50;99.90
55004;DHT22;40900;52.710;6.438;2023-04-28T03:38:13;7.50;99.90
55004;DHT22;40900;52.710;6.438;2023-04-28T03:40:39;7.60;99.90
55004;DHT22;40900;52.710;6.438;2023-04-28T03:43:05;7.60;99.90
55004;DHT22;40900;52.710;6.438;2023-04-28T03:45:31;7.50;99.90
55004;DHT22;40900;52.710;6.438;2023-04-28T03:47:56;7.50;99.90
55004;DHT22;40900;52.710;6.438;2023-04-28T03:50:22;7.50;99.90
55004;DHT22;40900;52.710;6.438;2023-04-28T03:52:48;7.50;99.90
55004;DHT22;40900;52.710;6.438;2023-04-28T03:55:13;7.50;99.90
55004;DHT22;40900;52.710;6.438;2023-04-28T03:57:39;7.40;99.90
55004;DHT22;40900;52.710;6.438;2023-04-28T04:00:05;7.40;99.90
55004;DHT22;40900;52.710;6.438;2023-04-28T04:02:32;7.30;99.90
55004;DHT22;40900;52.710;6.438;2023-04-28T04:04:57;7.40;99.90
55004;DHT22;40900;52.710;6.438;2023-04-28T04:07:23;7.40;99.90
55004;DHT22;40900;52.710;6.438;2023-04-28T04:09:49;7.40;99.90
55004;DHT22;40900;52.710;6.438;2023-04-28T04:12:16;7.30;99.90
55004;DHT22;40900;52.710;6.438;2023-04-28T04:14:41;7.40;99.90
55004;DHT22;40900;52.710;6.438;2023-04-28T04:17:08;7.30;99.90
55004;DHT22;40900;52.710;6.438;2023-04-28T04:19:33;7.30;99.90
55004;DHT22;40900;52.710;6.438;2023-04-28T04:21:59;7.30;99.90
55004;DHT22;40900;52.710;6.438;2023-04-28T04:24:25;7.40;99.90
55004;DHT22;40900;52.710;6.438;2023-04-28T04:26:51;7.30;99.90
55004;DHT22;40900;52.710;6.438;2023-04-28T04:29:16;7.40;99.90
55004;DHT22;40900;52.710;6.438;2023-04-28T04:31:42;7.40;99.90
55004;DHT22;40900;52.710;6.438;2023-04-28T04:34:10;7.40;99.90
55004;DHT22;40900;52.710;6.438;2023-04-28T04:36:36;7.40;99.90
55004;DHT22;40900;52.710;6.438;2023-04-28T04:39:02;7.40;99.90
55004;DHT22;40900;52.710;6.438;2023-04-28T04:41:28;7.40;99.90
55004;DHT22;40900;52.710;6.438;2023-04-28T04:43:54;7.40;99.90
55004;DHT22;40900;52.710;6.438;2023-04-28T04:46:19;7.50;99.90
55004;DHT22;40900;52.710;6.438;2023-04-28T04:48:45;7.50;99.90
55004;DHT22;40900;52.710;6.438;2023-04-28T04:51:11;7.50;99.90
55004;DHT22;40900;52.710;6.438;2023-04-28T04:53:37;7.50;99.90
55004;DHT22;40900;52.710;6.438;2023-04-28T04:56:03;7.50;99.90
55004;DHT22;40900;52.710;6.438;2023-04-28T04:58:29;7.50;99.90
55004;DHT22;40900;52.710;6.438;2023-04-28T05:00:54;7.50;99.90
55004;DHT22;40900;52.710;6.438;2023-04-28T05:03:23;7.50;99.90
55004;DHT22;40900;52.710;6.438;2023-04-28T05:05:49;7.50;99.90
55004;DHT22;40900;52.710;6.438;2023-04-28T05:08:15;7.50;99.90
55004;DHT22;40900;52.710;6.438;2023-04-28T05:10:41;7.60;99.90
55004;DHT22;40900;52.710;6.438;2023-04-28T05:13:07;7.60;99.90
55004;DHT22;40900;52.710;6.438;2023-04-28T05:15:33;7.70;99.90
55004;DHT22;40900;52.710;6.438;2023-04-28T05:17:58;7.70;99.90
55004;DHT22;40900;52.710;6.438;2023-04-28T05:20:24;7.60;99.90
55004;DHT22;40900;52.710;6.438;2023-04-28T05:22:50;7.60;99.90
55004;DHT22;40900;52.710;6.438;2023-04-28T05:25:16;7.60;99.90
55004;DHT22;40900;52.710;6.438;2023-04-28T05:27:42;7.70;99.90
55004;DHT22;40900;52.710;6.438;2023-04-28T05:30:08;7.70;99.90
55004;DHT22;40900;52.710;6.438;2023-04-28T05:32:36;7.70;99.90
55004;DHT22;40900;52.710;6.438;2023-04-28T05:35:02;7.70;99.90
55004;DHT22;40900;52.710;6.438;2023-04-28T05:37:28;7.70;99.90
55004;DHT22;40900;52.710;6.438;2023-04-28T05:39:54;7.70;99.90
55004;DHT22;40900;52.710;6.438;2023-04-28T05:42:20;7.70;99.90
55004;DHT22;40900;52.710;6.438;2023-04-28T05:44:45;7.70;99.90
55004;DHT22;40900;52.710;6.438;2023-04-28T05:47:11;7.80;99.90
55004;DHT22;40900;52.710;6.438;2023-04-28T05:49:37;7.80;99.90
55004;DHT22;40900;52.710;6.438;2023-04-28T05:52:03;7.80;99.90
55004;DHT22;40900;52.710;6.438;2023-04-28T05:54:29;7.80;99.90
55004;DHT22;40900;52.710;6.438;2023-04-28T05:56:55;7.80;99.90
55004;DHT22;40900;52.710;6.438;2023-04-28T05:59:22;7.90;99.90
55004;DHT22;40900;52.710;6.438;2023-04-28T06:01:48;7.90;99.90
55004;DHT22;40900;52.710;6.438;2023-04-28T06:04:15;7.90;99.90
55004;DHT22;40900;52.710;6.438;2023-04-28T06:06:41;7.90;99.90
55004;DHT22;40900;52.710;6.438;2023-04-28T06:09:06;7.90;99.90
55004;DHT22;40900;52.710;6.438;2023-04-28T06:11:32;8.00;99.90
55004;DHT22;40900;52.710;6.438;2023-04-28T06:13:58;8.00;99.90
55004;DHT22;40900;52.710;6.438;2023-04-28T06:16:24;8.10;99.90
55004;DHT22;40900;52.710;6.438;2023-04-28T06:18:50;8.10;99.90
55004;DHT22;40900;52.710;6.438;2023-04-28T06:21:16;8.20;99.90
55004;DHT22;40900;52.710;6.438;2023-04-28T06:23:41;8.20;99.90
55004;DHT22;40900;52.710;6.438;2023-04-28T06:26:08;8.20;99.90
55004;DHT22;40900;52.710;6.438;2023-04-28T06:28:34;8.20;99.90
55004;DHT22;40900;52.710;6.438;2023-04-28T06:31:00;8.20;99.90
55004;DHT22;40900;52.710;6.438;2023-04-28T06:33:26;8.20;99.90
55004;DHT22;40900;52.710;6.438;2023-04-28T06:35:52;8.20;99.90
55004;DHT22;40900;52.710;6.438;2023-04-28T06:38:18;8.20;99.90
55004;DHT22;40900;52.710;6.438;2023-04-28T06:40:44;8.30;99.90
55004;DHT22;40900;52.710;6.438;2023-04-28T06:43:10;8.30;99.90
55004;DHT22;40900;52.710;6.438;2023-04-28T06:45:37;8.30;99.90
55004;DHT22;40900;52.710;6.438;2023-04-28T06:48:04;8.40;99.90
55004;DHT22;40900;52.710;6.438;2023-04-28T06:50:30;8.40;99.90
55004;DHT22;40900;52.710;6.438;2023-04-28T06:52:56;8.40;99.90
55004;DHT22;40900;52.710;6.438;2023-04-28T06:55:23;8.40;99.90
55004;DHT22;40900;52.710;6.438;2023-04-28T06:57:49;8.40;99.90
55004;DHT22;40900;52.710;6.438;2023-04-28T07:00:15;8.50;99.90
55004;DHT22;40900;52.710;6.438;2023-04-28T07:02:41;8.60;99.90
55004;DHT22;40900;52.710;6.438;2023-04-28T07:05:07;8.70;99.90
55004;DHT22;40900;52.710;6.438;2023-04-28T07:07:33;8.80;99.90
55004;DHT22;40900;52.710;6.438;2023-04-28T07:09:59;8.80;99.90
55004;DHT22;40900;52.710;6.438;2023-04-28T07:12:26;8.90;99.90
55004;DHT22;40900;52.710;6.438;2023-04-28T07:14:52;8.90;99.90
55004;DHT22;40900;52.710;6.438;2023-04-28T07:17:18;8.90;99.90
55004;DHT22;40900;52.710;6.438;2023-04-28T07:19:44;8.90;99.90
55004;DHT22;40900;52.710;6.438;2023-04-28T07:22:10;8.90;99.90
55004;DHT22;40900;52.710;6.438;2023-04-28T07:24:35;9.00;99.90
55004;DHT22;40900;52.710;6.438;2023-04-28T07:27:02;9.00;99.90
55004;DHT22;40900;52.710;6.438;2023-04-28T07:29:28;9.10;99.90
55004;DHT22;40900;52.710;6.438;2023-04-28T07:31:59;9.10;99.90
55004;DHT22;40900;52.710;6.438;2023-04-28T07:34:24;9.20;99.90
55004;DHT22;40900;52.710;6.438;2023-04-28T07:36:50;9.30;99.90
55004;DHT22;40900;52.710;6.438;2023-04-28T07:39:16;9.30;99.90
55004;DHT22;40900;52.710;6.438;2023-04-28T07:41:42;9.40;99.90
55004;DHT22;40900;52.710;6.438;2023-04-28T07:44:08;9.40;99.90
55004;DHT22;40900;52.710;6.438;2023-04-28T07:46:35;9.50;99.90
55004;DHT22;40900;52.710;6.438;2023-04-28T07:49:01;9.60;99.90
55004;DHT22;40900;52.710;6.438;2023-04-28T07:51:27;9.70;99.90
55004;DHT22;40900;52.710;6.438;2023-04-28T07:53:53;9.80;99.90
55004;DHT22;40900;52.710;6.438;2023-04-28T07:56:19;9.80;99.90
55004;DHT22;40900;52.710;6.438;2023-04-28T07:58:46;9.80;99.90
55004;DHT22;40900;52.710;6.438;2023-04-28T08:01:12;9.80;99.90
55004;DHT22;40900;52.710;6.438;2023-04-28T08:03:38;9.90;99.90
55004;DHT22;40900;52.710;6.438;2023-04-28T08:06:04;9.90;99.90
55004;DHT22;40900;52.710;6.438;2023-04-28T08:08:30;10.10;99.90
55004;DHT22;40900;52.710;6.438;2023-04-28T08:10:56;10.20;99.90
55004;DHT22;40900;52.710;6.438;2023-04-28T08:13:23;10.40;99.90
55004;DHT22;40900;52.710;6.438;2023-04-28T08:15:49;10.50;99.90
55004;DHT22;40900;52.710;6.438;2023-04-28T08:18:15;10.60;99.90
55004;DHT22;40900;52.710;6.438;2023-04-28T08:20:41;10.60;99.90
55004;DHT22;40900;52.710;6.438;2023-04-28T08:23:08;10.80;99.90
55004;DHT22;40900;52.710;6.438;2023-04-28T08:25:34;10.90;99.90
55004;DHT22;40900;52.710;6.438;2023-04-28T08:27:59;10.90;99.90
55004;DHT22;40900;52.710;6.438;2023-04-28T08:30:28;10.90;99.90
55004;DHT22;40900;52.710;6.438;2023-04-28T08:32:53;10.80;99.90
55004;DHT22;40900;52.710;6.438;2023-04-28T08:35:19;10.80;99.90
55004;DHT22;40900;52.710;6.438;2023-04-28T08:37:45;10.80;99.90
55004;DHT22;40900;52.710;6.438;2023-04-28T08:40:14;10.90;99.90
55004;DHT22;40900;52.710;6.438;2023-04-28T08:42:40;10.80;99.90
55004;DHT22;40900;52.710;6.438;2023-04-28T08:45:07;10.90;99.90
55004;DHT22;40900;52.710;6.438;2023-04-28T08:47:39;10.90;99.90
55004;DHT22;40900;52.710;6.438;2023-04-28T08:50:12;11.00;99.90
55004;DHT22;40900;52.710;6.438;2023-04-28T08:52:39;11.20;99.90
55004;DHT22;40900;52.710;6.438;2023-04-28T08:55:10;11.70;99.90
55004;DHT22;40900;52.710;6.438;2023-04-28T08:57:39;11.90;99.90
55004;DHT22;40900;52.710;6.438;2023-04-28T09:00:07;12.10;99.90
55004;DHT22;40900;52.710;6.438;2023-04-28T09:02:33;12.20;99.90
55004;DHT22;40900;52.710;6.438;2023-04-28T09:04:59;12.20;99.90
55004;DHT22;40900;52.710;6.438;2023-04-28T09:07:24;12.20;99.90
55004;DHT22;40900;52.710;6.438;2023-04-28T09:10:23;12.00;99.90
55004;DHT22;40900;52.710;6.438;2023-04-28T09:12:54;12.00;99.90
55004;DHT22;40900;52.710;6.438;2023-04-28T09:15:31;12.10;99.90
55004;DHT22;40900;52.710;6.438;2023-04-28T09:17:57;12.10;99.90
55004;DHT22;40900;52.710;6.438;2023-04-28T09:20:25;12.20;99.90
55004;DHT22;40900;52.710;6.438;2023-04-28T09:22:52;12.20;99.90
55004;DHT22;40900;52.710;6.438;2023-04-28T09:25:19;12.30;99.90
55004;DHT22;40900;52.710;6.438;2023-04-28T09:27:46;12.40;99.90
55004;DHT22;40900;52.710;6.438;2023-04-28T09:30:12;12.40;99.90
55004;DHT22;40900;52.710;6.438;2023-04-28T09:32:38;12.40;99.90
55004;DHT22;40900;52.710;6.438;2023-04-28T09:35:04;12.40;99.90
55004;DHT22;40900;52.710;6.438;2023-04-28T09:37:33;12.50;99.90
55004;DHT22;40900;52.710;6.438;2023-04-28T09:40:08;12.60;99.90
55004;DHT22;40900;52.710;6.438;2023-04-28T09:42:39;12.60;99.90
55004;DHT22;40900;52.710;6.438;2023-04-28T09:45:09;12.70;99.90
55004;DHT22;40900;52.710;6.438;2023-04-28T09:47:36;13.00;99.90
55004;DHT22;40900;52.710;6.438;2023-04-28T09:50:04;13.20;99.90
55004;DHT22;40900;52.710;6.438;2023-04-28T09:52:32;13.50;99.90
55004;DHT22;40900;52.710;6.438;2023-04-28T09:55:06;14.10;99.90
55004;DHT22;40900;52.710;6.438;2023-04-28T09:57:34;14.60;99.90
55004;DHT22;40900;52.710;6.438;2023-04-28T10:00:02;14.80;99.90
55004;DHT22;40900;52.710;6.438;2023-04-28T10:02:31;15.20;99.90
55004;DHT22;40900;52.710;6.438;2023-04-28T10:04:57;15.40;99.90
55004;DHT22;40900;52.710;6.438;2023-04-28T10:07:23;16.10;99.90
55004;DHT22;40900;52.710;6.438;2023-04-28T10:09:50;16.20;99.90
55004;DHT22;40900;52.710;6.438;2023-04-28T10:12:16;16.50;99.90
55004;DHT22;40900;52.710;6.438;2023-04-28T10:14:43;16.80;99.90
55004;DHT22;40900;52.710;6.438;2023-04-28T10:17:10;16.60;99.90
55004;DHT22;40900;52.710;6.438;2023-04-28T10:19:39;16.20;99.90
55004;DHT22;40900;52.710;6.438;2023-04-28T10:25:04;15.70;99.90
55004;DHT22;40900;52.710;6.438;2023-04-28T10:27:34;15.50;99.90
55004;DHT22;40900;52.710;6.438;2023-04-28T10:30:14;15.20;99.90
55004;DHT22;40900;52.710;6.438;2023-04-28T10:32:41;15.10;99.90
55004;DHT22;40900;52.710;6.438;2023-04-28T10:40:35;14.50;99.90
55004;DHT22;40900;52.710;6.438;2023-04-28T10:43:01;14.40;99.90
55004;DHT22;40900;52.710;6.438;2023-04-28T10:48:50;14.20;99.90
55004;DHT22;40900;52.710;6.438;2023-04-28T10:56:22;14.40;99.90
55004;DHT22;40900;52.710;6.438;2023-04-28T10:58:56;14.30;99.90
55004;DHT22;40900;52.710;6.438;2023-04-28T11:01:31;14.40;99.90
55004;DHT22;40900;52.710;6.438;2023-04-28T11:04:09;14.30;99.90
55004;DHT22;40900;52.710;6.438;2023-04-28T11:06:44;14.40;99.90
55004;DHT22;40900;52.710;6.438;2023-04-28T11:16:58;14.30;99.90
55004;DHT22;40900;52.710;6.438;2023-04-28T11:19:26;14.30;99.90
55004;DHT22;40900;52.710;6.438;2023-04-28T11:21:54;14.10;99.90
55004;DHT22;40900;52.710;6.438;2023-04-28T11:24:22;14.10;99.90
55004;DHT22;40900;52.710;6.438;2023-04-28T11:26:50;14.00;99.90
55004;DHT22;40900;52.710;6.438;2023-04-28T11:29:17;14.00;99.90
55004;DHT22;40900;52.710;6.438;2023-04-28T11:31:50;14.00;99.90
55004;DHT22;40900;52.710;6.438;2023-04-28T11:34:19;13.90;99.90
55004;DHT22;40900;52.710;6.438;2023-04-28T11:36:48;13.80;99.90
55004;DHT22;40900;52.710;6.438;2023-04-28T11:39:14;13.80;99.90
55004;DHT22;40900;52.710;6.438;2023-04-28T11:41:42;13.80;99.90
55004;DHT22;40900;52.710;6.438;2023-04-28T11:44:15;13.80;99.90
55004;DHT22;40900;52.710;6.438;2023-04-28T11:46:46;13.70;99.90
55004;DHT22;40900;52.710;6.438;2023-04-28T11:49:15;13.70;99.90
55004;DHT22;40900;52.710;6.438;2023-04-28T11:51:41;13.70;99.90
55004;DHT22;40900;52.710;6.438;2023-04-28T11:54:09;13.70;99.90
55004;DHT22;40900;52.710;6.438;2023-04-28T11:56:42;13.60;99.90
55004;DHT22;40900;52.710;6.438;2023-04-28T11:59:10;13.70;99.90
55004;DHT22;40900;52.710;6.438;2023-04-28T12:01:48;13.70;99.90
55004;DHT22;40900;52.710;6.438;2023-04-28T12:04:32;13.60;99.90
55004;DHT22;40900;52.710;6.438;2023-04-28T12:09:28;13.60;99.90
55004;DHT22;40900;52.710;6.438;2023-04-28T12:11:59;13.60;99.90
55004;DHT22;40900;52.710;6.438;2023-04-28T12:14:26;13.60;99.90
55004;DHT22;40900;52.710;6.438;2023-04-28T12:16:52;13.70;99.90
55004;DHT22;40900;52.710;6.438;2023-04-28T12:19:18;13.80;99.90
55004;DHT22;40900;52.710;6.438;2023-04-28T12:21:58;13.80;99.90
55004;DHT22;40900;52.710;6.438;2023-04-28T12:24:25;13.80;99.90
55004;DHT22;40900;52.710;6.438;2023-04-28T12:26:51;13.70;99.90
55004;DHT22;40900;52.710;6.438;2023-04-28T12:29:38;13.60;99.90
55004;DHT22;40900;52.710;6.438;2023-04-28T12:32:09;13.50;99.90
55004;DHT22;40900;52.710;6.438;2023-04-28T12:34:36;13.50;99.90
55004;DHT22;40900;52.710;6.438;2023-04-28T12:37:03;13.50;99.90
55004;DHT22;40900;52.710;6.438;2023-04-28T12:39:34;13.40;99.90
55004;DHT22;40900;52.710;6.438;2023-04-28T12:42:01;13.40;99.90
55004;DHT22;40900;52.710;6.438;2023-04-28T12:44:32;13.40;99.90
55004;DHT22;40900;52.710;6.438;2023-04-28T12:47:01;13.50;99.90
55004;DHT22;40900;52.710;6.438;2023-04-28T12:49:27;13.50;99.90
55004;DHT22;40900;52.710;6.438;2023-04-28T12:51:53;13.50;99.90
55004;DHT22;40900;52.710;6.438;2023-04-28T12:54:19;13.50;99.90
55004;DHT22;40900;52.710;6.438;2023-04-28T12:56:44;13.40;99.90
55004;DHT22;40900;52.710;6.438;2023-04-28T12:59:10;13.30;99.90
55004;DHT22;40900;52.710;6.438;2023-04-28T13:01:36;13.30;99.90
55004;DHT22;40900;52.710;6.438;2023-04-28T13:04:02;13.40;99.90
55004;DHT22;40900;52.710;6.438;2023-04-28T13:06:28;13.30;99.90
55004;DHT22;40900;52.710;6.438;2023-04-28T13:08:54;13.30;99.90
55004;DHT22;40900;52.710;6.438;2023-04-28T13:11:20;13.30;99.90
55004;DHT22;40900;52.710;6.438;2023-04-28T13:13:45;13.20;99.90
55004;DHT22;40900;52.710;6.438;2023-04-28T13:16:11;13.20;99.90
55004;DHT22;40900;52.710;6.438;2023-04-28T13:18:38;13.20;99.90
55004;DHT22;40900;52.710;6.438;2023-04-28T13:21:04;13.20;99.90
55004;DHT22;40900;52.710;6.438;2023-04-28T13:23:30;13.20;99.90
55004;DHT22;40900;52.710;6.438;2023-04-28T13:25:56;13.30;99.90
55004;DHT22;40900;52.710;6.438;2023-04-28T13:28:21;13.30;99.90
55004;DHT22;40900;52.710;6.438;2023-04-28T13:30:47;13.40;99.90
55004;DHT22;40900;52.710;6.438;2023-04-28T13:33:13;13.40;99.90
55004;DHT22;40900;52.710;6.438;2023-04-28T13:35:38;13.40;99.90
55004;DHT22;40900;52.710;6.438;2023-04-28T13:38:05;13.50;99.90
55004;DHT22;40900;52.710;6.438;2023-04-28T13:40:32;13.50;99.90
55004;DHT22;40900;52.710;6.438;2023-04-28T13:42:58;13.50;99.90
55004;DHT22;40900;52.710;6.438;2023-04-28T13:45:24;13.50;99.90
55004;DHT22;40900;52.710;6.438;2023-04-28T13:47:53;13.40;99.90
55004;DHT22;40900;52.710;6.438;2023-04-28T13:50:19;13.40;99.90
55004;DHT22;40900;52.710;6.438;2023-04-28T13:52:44;13.40;99.90
55004;DHT22;40900;52.710;6.438;2023-04-28T13:55:10;13.30;99.90
55004;DHT22;40900;52.710;6.438;2023-04-28T13:57:36;13.40;99.90
55004;DHT22;40900;52.710;6.438;2023-04-28T14:00:02;13.40;99.90
55004;DHT22;40900;52.710;6.438;2023-04-28T14:02:30;13.40;99.90
55004;DHT22;40900;52.710;6.438;2023-04-28T14:04:56;13.40;99.90
55004;DHT22;40900;52.710;6.438;2023-04-28T14:07:22;13.40;99.90
55004;DHT22;40900;52.710;6.438;2023-04-28T14:09:48;13.40;99.90
55004;DHT22;40900;52.710;6.438;2023-04-28T14:12:14;13.30;99.90
55004;DHT22;40900;52.710;6.438;2023-04-28T14:14:40;13.40;99.90
55004;DHT22;40900;52.710;6.438;2023-04-28T14:17:07;13.40;99.90
55004;DHT22;40900;52.710;6.438;2023-04-28T14:19:33;13.30;99.90
55004;DHT22;40900;52.710;6.438;2023-04-28T14:21:59;13.30;99.90
55004;DHT22;40900;52.710;6.438;2023-04-28T14:24:25;13.30;99.90
55004;DHT22;40900;52.710;6.438;2023-04-28T14:26:51;13.40;99.90
55004;DHT22;40900;52.710;6.438;2023-04-28T14:29:17;13.30;99.90
55004;DHT22;40900;52.710;6.438;2023-04-28T14:31:43;13.30;99.90
55004;DHT22;40900;52.710;6.438;2023-04-28T14:34:09;13.30;99.90
55004;DHT22;40900;52.710;6.438;2023-04-28T14:36:35;13.30;99.90
55004;DHT22;40900;52.710;6.438;2023-04-28T14:39:02;13.40;99.90
55004;DHT22;40900;52.710;6.438;2023-04-28T14:41:28;13.40;99.90
55004;DHT22;40900;52.710;6.438;2023-04-28T14:43:54;13.40;99.90
55004;DHT22;40900;52.710;6.438;2023-04-28T14:46:21;13.30;99.90
55004;DHT22;40900;52.710;6.438;2023-04-28T14:48:50;13.30;99.90
55004;DHT22;40900;52.710;6.438;2023-04-28T14:51:18;13.30;99.90
55004;DHT22;40900;52.710;6.438;2023-04-28T14:53:43;13.30;99.90
55004;DHT22;40900;52.710;6.438;2023-04-28T14:56:09;13.30;99.90
55004;DHT22;40900;52.710;6.438;2023-04-28T14:58:35;13.40;99.90
55004;DHT22;40900;52.710;6.438;2023-04-28T15:01:01;13.40;99.90
55004;DHT22;40900;52.710;6.438;2023-04-28T15:03:28;13.30;99.90
55004;DHT22;40900;52.710;6.438;2023-04-28T15:05:54;13.30;99.90
55004;DHT22;40900;52.710;6.438;2023-04-28T15:08:20;13.20;99.90
55004;DHT22;40900;52.710;6.438;2023-04-28T15:10:46;13.10;99.90
55004;DHT22;40900;52.710;6.438;2023-04-28T15:13:12;13.20;99.90
55004;DHT22;40900;52.710;6.438;2023-04-28T15:15:37;13.10;99.90
55004;DHT22;40900;52.710;6.438;2023-04-28T15:18:04;13.10;99.90
55004;DHT22;40900;52.710;6.438;2023-04-28T15:20:31;13.20;99.90
55004;DHT22;40900;52.710;6.438;2023-04-28T15:22:58;13.20;99.90
55004;DHT22;40900;52.710;6.438;2023-04-28T15:25:24;13.20;99.90
55004;DHT22;40900;52.710;6.438;2023-04-28T15:27:50;13.10;99.90
55004;DHT22;40900;52.710;6.438;2023-04-28T15:30:17;13.00;99.90
55004;DHT22;40900;52.710;6.438;2023-04-28T15:32:43;13.10;99.90
55004;DHT22;40900;52.710;6.438;2023-04-28T15:35:09;13.00;99.90
55004;DHT22;40900;52.710;6.438;2023-04-28T15:37:43;12.90;99.90
55004;DHT22;40900;52.710;6.438;2023-04-28T15:40:16;13.00;99.90
55004;DHT22;40900;52.710;6.438;2023-04-28T15:42:42;13.00;99.90
55004;DHT22;40900;52.710;6.438;2023-04-28T15:45:16;12.90;99.90
55004;DHT22;40900;52.710;6.438;2023-04-28T15:47:43;12.90;99.90
55004;DHT22;40900;52.710;6.438;2023-04-28T15:50:10;12.90;99.90
55004;DHT22;40900;52.710;6.438;2023-04-28T15:52:39;12.90;99.90
55004;DHT22;40900;52.710;6.438;2023-04-28T15:55:06;13.00;99.90
55004;DHT22;40900;52.710;6.438;2023-04-28T15:57:33;12.80;99.90
55004;DHT22;40900;52.710;6.438;2023-04-28T15:59:58;12.90;99.90
55004;DHT22;40900;52.710;6.438;2023-04-28T16:02:24;12.80;99.90
55004;DHT22;40900;52.710;6.438;2023-04-28T16:04:50;12.80;99.90